AAL1414 KPHX-KDEN
Flight info
| Callsign | AAL1414 |
|---|---|
| Flight time | 1h 18m |
| Altitude | 37000 |
| Route | MRBIL1 JARPA CRUDD TBARR4 |
| Aircraft | B738/M-SDE2E3FGHIRWXY/LB1 |
Departure
| Time | 2026-05-06 01:05 |
|---|---|
| Airport | Phoenix Sky Harbor International Airport (KPHX) |
Arrival
| Time | 2026-05-06 02:23 |
|---|---|
| Airport | Denver International Airport (KDEN) |
| Time | Latitude | Longitude | Altitude | Speed | Heading |
|---|---|---|---|---|---|
| 2026-05-06 00:46 | 33.43840 | -111.99985 | 1135 ft | 0 kts | 128° |
| 2026-05-06 00:56 | 33.43845 | -111.99993 | 1135 ft | 2 kts | 124° |
| 2026-05-06 00:56 | 33.43847 | -112.00012 | 1135 ft | 2 kts | 74° |
| 2026-05-06 00:56 | 33.43840 | -112.00028 | 1135 ft | 2 kts | 36° |
| 2026-05-06 00:56 | 33.43827 | -112.00034 | 1135 ft | 0 kts | 3° |
| 2026-05-06 00:57 | 33.43821 | -112.00033 | 1135 ft | 1 kts | 358° |
| 2026-05-06 00:57 | 33.43819 | -112.00033 | 1135 ft | 0 kts | 359° |
| 2026-05-06 01:00 | 33.43827 | -112.00033 | 1135 ft | 3 kts | 358° |
| 2026-05-06 01:00 | 33.43860 | -112.00035 | 1135 ft | 6 kts | 355° |
| 2026-05-06 01:00 | 33.43901 | -112.00095 | 1135 ft | 16 kts | 275° |
| 2026-05-06 01:01 | 33.43901 | -112.00260 | 1135 ft | 13 kts | 269° |
| 2026-05-06 01:01 | 33.43841 | -112.00326 | 1135 ft | 11 kts | 222° |
| 2026-05-06 01:01 | 33.43758 | -112.00368 | 1134 ft | 16 kts | 180° |
| 2026-05-06 01:01 | 33.43600 | -112.00378 | 1133 ft | 27 kts | 183° |
| 2026-05-06 01:02 | 33.43425 | -112.00382 | 1132 ft | 22 kts | 180° |
| 2026-05-06 01:02 | 33.43293 | -112.00356 | 1131 ft | 17 kts | 119° |
| 2026-05-06 01:02 | 33.43287 | -112.00219 | 1131 ft | 19 kts | 90° |
| 2026-05-06 01:02 | 33.43286 | -112.00007 | 1131 ft | 24 kts | 90° |
| 2026-05-06 01:03 | 33.43285 | -111.99801 | 1131 ft | 23 kts | 90° |
| 2026-05-06 01:03 | 33.43285 | -111.99603 | 1131 ft | 22 kts | 90° |
| 2026-05-06 01:03 | 33.43285 | -111.99418 | 1131 ft | 21 kts | 90° |
| 2026-05-06 01:03 | 33.43223 | -111.99339 | 1131 ft | 13 kts | 180° |
| 2026-05-06 01:04 | 33.43127 | -111.99347 | 1130 ft | 13 kts | 200° |
| 2026-05-06 01:04 | 33.43103 | -111.99410 | 1130 ft | 0 kts | 269° |
| 2026-05-06 01:04 | 33.43103 | -111.99452 | 1130 ft | 27 kts | 269° |
| 2026-05-06 01:05 | 33.43103 | -112.00018 | 1130 ft | 105 kts | 271° |
| 2026-05-06 01:05 | 33.43119 | -112.01164 | 1264 ft | 156 kts | 268° |
| 2026-05-06 01:05 | 33.43116 | -112.02391 | 2148 ft | 149 kts | 266° |
| 2026-05-06 01:05 | 33.43121 | -112.03635 | 2774 ft | 161 kts | 269° |
| 2026-05-06 01:06 | 33.43154 | -112.05027 | 3308 ft | 175 kts | 270° |
| 2026-05-06 01:06 | 33.43190 | -112.06525 | 3822 ft | 191 kts | 270° |
| 2026-05-06 01:06 | 33.43218 | -112.08189 | 4357 ft | 209 kts | 270° |
| 2026-05-06 01:06 | 33.43261 | -112.10004 | 4958 ft | 226 kts | 271° |
| 2026-05-06 01:07 | 33.43316 | -112.11922 | 5579 ft | 241 kts | 271° |
| 2026-05-06 01:07 | 33.43378 | -112.13914 | 6439 ft | 244 kts | 272° |
| 2026-05-06 01:07 | 33.43644 | -112.15923 | 7293 ft | 249 kts | 287° |
| 2026-05-06 01:07 | 33.44526 | -112.17685 | 8059 ft | 258 kts | 312° |
| 2026-05-06 01:08 | 33.45980 | -112.18961 | 8885 ft | 264 kts | 329° |
| 2026-05-06 01:08 | 33.47704 | -112.19720 | 9684 ft | 271 kts | 348° |
| 2026-05-06 01:08 | 33.49608 | -112.19837 | 10495 ft | 277 kts | 359° |
| 2026-05-06 01:08 | 33.51551 | -112.19729 | 11315 ft | 281 kts | 0° |
| 2026-05-06 01:09 | 33.53483 | -112.19455 | 12144 ft | 285 kts | 9° |
| 2026-05-06 01:09 | 33.55471 | -112.18911 | 12714 ft | 300 kts | 11° |
| 2026-05-06 01:09 | 33.57552 | -112.18291 | 13242 ft | 316 kts | 11° |
| 2026-05-06 01:09 | 33.59740 | -112.17615 | 13763 ft | 332 kts | 14° |
| 2026-05-06 01:10 | 33.61890 | -112.16533 | 14260 ft | 350 kts | 29° |
| 2026-05-06 01:10 | 33.63853 | -112.14616 | 14744 ft | 369 kts | 44° |
| 2026-05-06 01:10 | 33.65622 | -112.12376 | 15424 ft | 378 kts | 47° |
| 2026-05-06 01:10 | 33.67384 | -112.10008 | 16291 ft | 382 kts | 47° |
| 2026-05-06 01:11 | 33.69156 | -112.07625 | 17099 ft | 386 kts | 47° |
| 2026-05-06 01:11 | 33.70964 | -112.05231 | 17855 ft | 392 kts | 46° |
| 2026-05-06 01:11 | 33.72837 | -112.02790 | 18512 ft | 399 kts | 46° |
| 2026-05-06 01:11 | 33.74718 | -112.00357 | 19288 ft | 403 kts | 47° |
| 2026-05-06 01:12 | 33.76562 | -111.97783 | 19924 ft | 410 kts | 50° |
| 2026-05-06 01:12 | 33.78350 | -111.95049 | 20426 ft | 420 kts | 52° |
| 2026-05-06 01:12 | 33.80124 | -111.92222 | 21013 ft | 428 kts | 52° |
| 2026-05-06 01:12 | 33.81892 | -111.89370 | 21681 ft | 432 kts | 52° |
| 2026-05-06 01:13 | 33.83708 | -111.86440 | 22273 ft | 438 kts | 52° |
| 2026-05-06 01:13 | 33.85535 | -111.83500 | 22728 ft | 447 kts | 52° |
| 2026-05-06 01:13 | 33.87410 | -111.80497 | 23395 ft | 451 kts | 52° |
| 2026-05-06 01:13 | 33.89314 | -111.77456 | 23979 ft | 455 kts | 52° |
| 2026-05-06 01:14 | 33.93223 | -111.71233 | 24673 ft | 476 kts | 52° |
| 2026-05-06 01:14 | 33.95213 | -111.68070 | 25227 ft | 479 kts | 52° |
| 2026-05-06 01:14 | 33.97263 | -111.64852 | 25598 ft | 487 kts | 51° |
| 2026-05-06 01:15 | 33.99444 | -111.61663 | 25998 ft | 493 kts | 46° |
| 2026-05-06 01:15 | 34.01878 | -111.58781 | 26399 ft | 497 kts | 37° |
| 2026-05-06 01:15 | 34.04632 | -111.56202 | 26723 ft | 503 kts | 31° |
| 2026-05-06 01:15 | 34.07562 | -111.53838 | 27109 ft | 507 kts | 27° |
| 2026-05-06 01:16 | 34.10552 | -111.51602 | 27588 ft | 510 kts | 26° |
| 2026-05-06 01:16 | 34.13610 | -111.49381 | 27900 ft | 517 kts | 26° |
| 2026-05-06 01:16 | 34.16698 | -111.47141 | 28430 ft | 518 kts | 26° |
| 2026-05-06 01:16 | 34.19800 | -111.44869 | 28677 ft | 527 kts | 27° |
| 2026-05-06 01:17 | 34.22924 | -111.42549 | 29103 ft | 531 kts | 27° |
| 2026-05-06 01:17 | 34.26088 | -111.40169 | 29503 ft | 534 kts | 26° |
| 2026-05-06 01:17 | 34.29246 | -111.37770 | 29790 ft | 540 kts | 27° |
| 2026-05-06 01:17 | 34.32421 | -111.35335 | 30359 ft | 538 kts | 27° |
| 2026-05-06 01:18 | 34.35604 | -111.32882 | 30781 ft | 540 kts | 28° |
| 2026-05-06 01:18 | 34.38763 | -111.30437 | 31381 ft | 537 kts | 28° |
| 2026-05-06 01:18 | 34.41891 | -111.28006 | 32032 ft | 531 kts | 27° |
| 2026-05-06 01:18 | 34.44956 | -111.25617 | 32566 ft | 529 kts | 27° |
| 2026-05-06 01:19 | 34.48074 | -111.23188 | 32959 ft | 530 kts | 28° |
| 2026-05-06 01:19 | 34.51194 | -111.20762 | 33359 ft | 530 kts | 27° |
| 2026-05-06 01:19 | 34.54295 | -111.18351 | 33898 ft | 528 kts | 27° |
| 2026-05-06 01:19 | 34.57343 | -111.15971 | 34581 ft | 521 kts | 28° |
| 2026-05-06 01:20 | 34.60333 | -111.13456 | 35286 ft | 516 kts | 33° |
| 2026-05-06 01:20 | 34.63132 | -111.10791 | 35896 ft | 512 kts | 37° |
| 2026-05-06 01:20 | 34.65794 | -111.07982 | 36329 ft | 511 kts | 40° |
| 2026-05-06 01:20 | 34.68403 | -111.05020 | 36604 ft | 514 kts | 42° |
| 2026-05-06 01:21 | 34.70983 | -111.01955 | 36920 ft | 516 kts | 42° |
| 2026-05-06 01:21 | 34.73521 | -110.98870 | 36984 ft | 519 kts | 43° |
| 2026-05-06 01:21 | 34.78542 | -110.92696 | 36993 ft | 510 kts | 44° |
| 2026-05-06 01:22 | 34.83525 | -110.86565 | 36992 ft | 509 kts | 43° |
| 2026-05-06 01:22 | 34.88554 | -110.80411 | 36993 ft | 512 kts | 42° |
| 2026-05-06 01:23 | 34.93574 | -110.74277 | 36980 ft | 512 kts | 43° |
| 2026-05-06 01:23 | 34.98615 | -110.68113 | 36953 ft | 513 kts | 43° |
| 2026-05-06 01:24 | 35.03635 | -110.61975 | 36984 ft | 516 kts | 43° |
| 2026-05-06 01:24 | 35.06145 | -110.58903 | 36844 ft | 512 kts | 43° |
| 2026-05-06 01:24 | 35.08659 | -110.55824 | 36958 ft | 508 kts | 43° |
| 2026-05-06 01:25 | 35.13652 | -110.49700 | 36981 ft | 514 kts | 43° |
| 2026-05-06 01:25 | 35.18686 | -110.43506 | 36977 ft | 511 kts | 43° |
| 2026-05-06 01:26 | 35.23693 | -110.37322 | 36956 ft | 507 kts | 42° |
| 2026-05-06 01:26 | 35.28634 | -110.31222 | 36978 ft | 510 kts | 44° |
| 2026-05-06 01:27 | 35.33639 | -110.25028 | 36973 ft | 513 kts | 44° |
| 2026-05-06 01:27 | 35.38617 | -110.18862 | 36972 ft | 508 kts | 44° |
| 2026-05-06 01:28 | 35.43633 | -110.12643 | 36974 ft | 512 kts | 44° |
| 2026-05-06 01:28 | 35.48599 | -110.06470 | 36974 ft | 510 kts | 44° |
| 2026-05-06 01:29 | 35.53564 | -110.00283 | 36982 ft | 509 kts | 43° |
| 2026-05-06 01:29 | 35.58566 | -109.94041 | 36975 ft | 511 kts | 44° |
| 2026-05-06 01:30 | 35.63538 | -109.87826 | 36977 ft | 509 kts | 43° |
| 2026-05-06 01:30 | 35.68486 | -109.81634 | 36989 ft | 508 kts | 43° |
| 2026-05-06 01:31 | 35.73473 | -109.75522 | 36993 ft | 507 kts | 40° |
| 2026-05-06 01:31 | 35.78712 | -109.69756 | 36989 ft | 504 kts | 38° |
| 2026-05-06 01:32 | 35.84049 | -109.64095 | 36989 ft | 504 kts | 38° |
| 2026-05-06 01:32 | 35.89282 | -109.58492 | 36998 ft | 503 kts | 38° |
| 2026-05-06 01:33 | 35.94571 | -109.52760 | 36997 ft | 503 kts | 39° |
| 2026-05-06 01:33 | 35.99793 | -109.47047 | 37005 ft | 505 kts | 39° |
| 2026-05-06 01:34 | 36.05005 | -109.41318 | 36992 ft | 500 kts | 39° |
| 2026-05-06 01:34 | 36.10231 | -109.35554 | 36986 ft | 503 kts | 39° |
| 2026-05-06 01:35 | 36.15467 | -109.29768 | 36994 ft | 502 kts | 39° |
| 2026-05-06 01:35 | 36.20642 | -109.24033 | 37004 ft | 502 kts | 39° |
| 2026-05-06 01:36 | 36.25677 | -109.18448 | 37004 ft | 500 kts | 40° |
| 2026-05-06 01:36 | 36.30866 | -109.12688 | 37009 ft | 501 kts | 39° |
| 2026-05-06 01:37 | 36.36084 | -109.06883 | 36954 ft | 499 kts | 39° |
| 2026-05-06 01:37 | 36.38710 | -109.03958 | 37079 ft | 501 kts | 39° |
| 2026-05-06 01:37 | 36.41313 | -109.01057 | 36967 ft | 501 kts | 39° |
| 2026-05-06 01:38 | 36.46499 | -108.95270 | 36993 ft | 502 kts | 39° |
| 2026-05-06 01:38 | 36.51697 | -108.89451 | 37027 ft | 501 kts | 39° |
| 2026-05-06 01:39 | 36.56941 | -108.83572 | 36990 ft | 500 kts | 40° |
| 2026-05-06 01:39 | 36.62145 | -108.77719 | 36973 ft | 500 kts | 39° |
| 2026-05-06 01:40 | 36.67305 | -108.71907 | 36960 ft | 496 kts | 39° |
| 2026-05-06 01:40 | 36.72445 | -108.66120 | 36943 ft | 499 kts | 39° |
| 2026-05-06 01:41 | 36.77609 | -108.60288 | 36925 ft | 497 kts | 39° |
| 2026-05-06 01:41 | 36.82719 | -108.54504 | 36898 ft | 499 kts | 38° |
| 2026-05-06 01:42 | 36.87864 | -108.48684 | 36924 ft | 499 kts | 38° |
| 2026-05-06 01:42 | 36.92994 | -108.42861 | 36907 ft | 499 kts | 39° |
| 2026-05-06 01:43 | 36.98116 | -108.37026 | 36912 ft | 498 kts | 39° |
| 2026-05-06 01:43 | 37.03240 | -108.31191 | 36939 ft | 497 kts | 40° |
| 2026-05-06 01:44 | 37.08309 | -108.25399 | 36933 ft | 496 kts | 39° |
| 2026-05-06 01:44 | 37.13384 | -108.19583 | 36946 ft | 493 kts | 39° |
| 2026-05-06 01:45 | 37.18485 | -108.13734 | 36964 ft | 495 kts | 39° |
| 2026-05-06 01:45 | 37.23550 | -108.07916 | 36972 ft | 494 kts | 39° |
| 2026-05-06 01:46 | 37.28612 | -108.02093 | 36986 ft | 494 kts | 39° |
| 2026-05-06 01:46 | 37.33661 | -107.96270 | 36999 ft | 494 kts | 40° |
| 2026-05-06 01:47 | 37.38746 | -107.90401 | 37015 ft | 493 kts | 39° |
| 2026-05-06 01:47 | 37.43788 | -107.84573 | 37020 ft | 491 kts | 40° |
| 2026-05-06 01:48 | 37.48839 | -107.78709 | 37026 ft | 494 kts | 39° |
| 2026-05-06 01:48 | 37.53854 | -107.72870 | 37020 ft | 491 kts | 40° |
| 2026-05-06 01:49 | 37.58901 | -107.66991 | 37028 ft | 490 kts | 39° |
| 2026-05-06 01:49 | 37.63903 | -107.61161 | 37018 ft | 493 kts | 39° |
| 2026-05-06 01:50 | 37.68918 | -107.55302 | 37028 ft | 490 kts | 40° |
| 2026-05-06 01:50 | 37.73893 | -107.49477 | 37031 ft | 490 kts | 40° |
| 2026-05-06 01:51 | 37.78532 | -107.44031 | 37037 ft | 491 kts | 40° |
| 2026-05-06 01:51 | 37.83507 | -107.38175 | 37046 ft | 487 kts | 40° |
| 2026-05-06 01:52 | 37.88462 | -107.32318 | 37055 ft | 486 kts | 41° |
| 2026-05-06 01:52 | 37.93284 | -107.26605 | 37062 ft | 487 kts | 41° |
| 2026-05-06 01:53 | 37.98269 | -107.20685 | 37071 ft | 489 kts | 40° |
| 2026-05-06 01:53 | 38.00751 | -107.17738 | 37212 ft | 490 kts | 40° |
| 2026-05-06 01:53 | 38.03240 | -107.14780 | 37105 ft | 487 kts | 40° |
| 2026-05-06 01:54 | 38.08165 | -107.08916 | 37079 ft | 486 kts | 40° |
| 2026-05-06 01:54 | 38.13080 | -107.03056 | 37074 ft | 485 kts | 40° |
| 2026-05-06 01:55 | 38.17699 | -106.96877 | 37067 ft | 486 kts | 46° |
| 2026-05-06 01:55 | 38.22029 | -106.90323 | 37061 ft | 491 kts | 49° |
| 2026-05-06 01:56 | 38.26379 | -106.83582 | 37066 ft | 491 kts | 49° |
| 2026-05-06 01:56 | 38.30687 | -106.76908 | 37072 ft | 488 kts | 47° |
| 2026-05-06 01:57 | 38.35026 | -106.70241 | 37063 ft | 490 kts | 47° |
| 2026-05-06 01:57 | 38.39381 | -106.63563 | 37060 ft | 491 kts | 47° |
| 2026-05-06 01:58 | 38.43721 | -106.56901 | 37045 ft | 487 kts | 47° |
| 2026-05-06 01:58 | 38.48050 | -106.50247 | 37022 ft | 487 kts | 47° |
| 2026-05-06 01:59 | 38.52392 | -106.43559 | 37009 ft | 488 kts | 47° |
| 2026-05-06 01:59 | 38.56539 | -106.37154 | 36802 ft | 480 kts | 47° |
| 2026-05-06 02:00 | 38.58675 | -106.33852 | 36362 ft | 477 kts | 47° |
| 2026-05-06 02:00 | 38.60761 | -106.30627 | 35794 ft | 478 kts | 47° |
| 2026-05-06 02:00 | 38.62892 | -106.27334 | 35256 ft | 478 kts | 47° |
| 2026-05-06 02:00 | 38.65025 | -106.24036 | 34768 ft | 479 kts | 47° |
| 2026-05-06 02:01 | 38.67153 | -106.20755 | 34199 ft | 481 kts | 47° |
| 2026-05-06 02:01 | 38.69115 | -106.17750 | 33622 ft | 476 kts | 47° |
| 2026-05-06 02:01 | 38.71256 | -106.14478 | 33049 ft | 470 kts | 47° |
| 2026-05-06 02:01 | 38.73356 | -106.11269 | 32477 ft | 463 kts | 48° |
| 2026-05-06 02:02 | 38.75405 | -106.08136 | 31925 ft | 456 kts | 47° |
| 2026-05-06 02:02 | 38.77416 | -106.05061 | 31395 ft | 448 kts | 47° |
| 2026-05-06 02:02 | 38.79413 | -106.02002 | 30876 ft | 441 kts | 48° |
| 2026-05-06 02:02 | 38.81374 | -105.98995 | 30342 ft | 434 kts | 48° |
| 2026-05-06 02:03 | 38.83292 | -105.96055 | 29787 ft | 425 kts | 48° |
| 2026-05-06 02:03 | 38.85151 | -105.93201 | 29299 ft | 417 kts | 48° |
| 2026-05-06 02:03 | 38.86995 | -105.90366 | 28764 ft | 411 kts | 49° |
| 2026-05-06 02:03 | 38.88845 | -105.87524 | 27745 ft | 417 kts | 48° |
| 2026-05-06 02:04 | 38.90707 | -105.84651 | 26634 ft | 424 kts | 49° |
| 2026-05-06 02:04 | 38.92578 | -105.81750 | 25501 ft | 431 kts | 49° |
| 2026-05-06 02:04 | 38.94508 | -105.78748 | 24270 ft | 438 kts | 49° |
| 2026-05-06 02:04 | 38.96415 | -105.75774 | 23465 ft | 433 kts | 49° |
| 2026-05-06 02:05 | 38.98318 | -105.72800 | 22762 ft | 427 kts | 49° |
| 2026-05-06 02:05 | 39.00169 | -105.69900 | 22099 ft | 420 kts | 49° |
| 2026-05-06 02:05 | 39.02000 | -105.67033 | 21437 ft | 414 kts | 48° |
| 2026-05-06 02:05 | 39.03825 | -105.64181 | 20747 ft | 408 kts | 47° |
| 2026-05-06 02:06 | 39.05593 | -105.61433 | 20165 ft | 400 kts | 47° |
| 2026-05-06 02:06 | 39.07340 | -105.58718 | 19989 ft | 389 kts | 47° |
| 2026-05-06 02:06 | 39.09101 | -105.55988 | 19913 ft | 401 kts | 47° |
| 2026-05-06 02:06 | 39.10863 | -105.53256 | 19793 ft | 398 kts | 47° |
| 2026-05-06 02:07 | 39.10889 | -105.53216 | 19791 ft | 398 kts | 47° |
| 2026-05-06 02:07 | 39.11855 | -105.51715 | 19717 ft | 391 kts | 47° |
| 2026-05-06 02:07 | 39.12556 | -105.50624 | 19664 ft | 387 kts | 47° |
| 2026-05-06 02:07 | 39.14280 | -105.47939 | 19527 ft | 394 kts | 47° |
| 2026-05-06 02:08 | 39.16033 | -105.45206 | 19319 ft | 389 kts | 47° |
| 2026-05-06 02:08 | 39.17724 | -105.42535 | 19034 ft | 381 kts | 47° |
| 2026-05-06 02:08 | 39.19364 | -105.39920 | 18915 ft | 369 kts | 47° |
| 2026-05-06 02:08 | 39.20976 | -105.37347 | 18775 ft | 378 kts | 47° |
| 2026-05-06 02:09 | 39.22636 | -105.34698 | 18633 ft | 379 kts | 48° |
| 2026-05-06 02:09 | 39.24280 | -105.32069 | 18520 ft | 367 kts | 47° |
| 2026-05-06 02:09 | 39.25850 | -105.29560 | 18410 ft | 375 kts | 47° |
| 2026-05-06 02:09 | 39.27446 | -105.26813 | 18267 ft | 377 kts | 54° |
| 2026-05-06 02:10 | 39.28567 | -105.23772 | 18131 ft | 368 kts | 70° |
| 2026-05-06 02:10 | 39.29155 | -105.20586 | 17702 ft | 368 kts | 78° |
| 2026-05-06 02:10 | 39.29570 | -105.17300 | 17146 ft | 370 kts | 81° |
| 2026-05-06 02:10 | 39.29922 | -105.14050 | 16682 ft | 369 kts | 82° |
| 2026-05-06 02:11 | 39.30272 | -105.10775 | 16219 ft | 365 kts | 81° |
| 2026-05-06 02:11 | 39.30627 | -105.07590 | 15776 ft | 359 kts | 81° |
| 2026-05-06 02:11 | 39.30992 | -105.04411 | 15355 ft | 352 kts | 80° |
| 2026-05-06 02:11 | 39.31349 | -105.01350 | 14922 ft | 344 kts | 81° |
| 2026-05-06 02:12 | 39.31747 | -104.98364 | 14507 ft | 336 kts | 78° |
| 2026-05-06 02:12 | 39.32262 | -104.95454 | 14262 ft | 323 kts | 75° |
| 2026-05-06 02:12 | 39.32811 | -104.92722 | 14185 ft | 310 kts | 74° |
| 2026-05-06 02:12 | 39.33344 | -104.90098 | 14105 ft | 299 kts | 75° |
| 2026-05-06 02:13 | 39.33854 | -104.87523 | 13971 ft | 290 kts | 73° |
| 2026-05-06 02:13 | 39.34413 | -104.85074 | 13712 ft | 286 kts | 71° |
| 2026-05-06 02:13 | 39.35048 | -104.82626 | 13411 ft | 283 kts | 70° |
| 2026-05-06 02:13 | 39.35679 | -104.80257 | 13129 ft | 281 kts | 70° |
| 2026-05-06 02:14 | 39.36322 | -104.77876 | 12970 ft | 274 kts | 69° |
| 2026-05-06 02:14 | 39.36993 | -104.75622 | 12949 ft | 269 kts | 67° |
| 2026-05-06 02:14 | 39.37693 | -104.73357 | 12931 ft | 272 kts | 67° |
| 2026-05-06 02:14 | 39.38404 | -104.71122 | 12950 ft | 272 kts | 63° |
| 2026-05-06 02:15 | 39.39433 | -104.69073 | 12949 ft | 269 kts | 42° |
| 2026-05-06 02:15 | 39.40920 | -104.67672 | 12959 ft | 266 kts | 26° |
| 2026-05-06 02:15 | 39.42587 | -104.66685 | 12951 ft | 262 kts | 11° |
| 2026-05-06 02:15 | 39.44384 | -104.66373 | 12815 ft | 260 kts | 357° |
| 2026-05-06 02:16 | 39.46193 | -104.66412 | 12404 ft | 262 kts | 355° |
| 2026-05-06 02:16 | 39.48018 | -104.66469 | 12093 ft | 259 kts | 356° |
| 2026-05-06 02:16 | 39.49805 | -104.66467 | 11875 ft | 254 kts | 358° |
| 2026-05-06 02:16 | 39.51599 | -104.66436 | 11415 ft | 260 kts | 359° |
| 2026-05-06 02:17 | 39.53413 | -104.66410 | 10974 ft | 261 kts | 360° |
| 2026-05-06 02:17 | 39.55195 | -104.66390 | 10644 ft | 257 kts | 0° |
| 2026-05-06 02:17 | 39.57004 | -104.66370 | 10259 ft | 255 kts | 1° |
| 2026-05-06 02:17 | 39.58744 | -104.66346 | 9979 ft | 250 kts | 2° |
| 2026-05-06 02:18 | 39.60473 | -104.66322 | 9711 ft | 245 kts | 2° |
| 2026-05-06 02:18 | 39.62153 | -104.66276 | 9377 ft | 235 kts | 1° |
| 2026-05-06 02:18 | 39.63741 | -104.66277 | 9086 ft | 214 kts | 1° |
| 2026-05-06 02:18 | 39.65127 | -104.66272 | 8958 ft | 190 kts | 1° |
| 2026-05-06 02:19 | 39.66375 | -104.66260 | 8794 ft | 169 kts | 1° |
| 2026-05-06 02:19 | 39.67512 | -104.66242 | 8454 ft | 159 kts | 2° |
| 2026-05-06 02:19 | 39.68608 | -104.66193 | 8298 ft | 157 kts | 1° |
| 2026-05-06 02:19 | 39.69719 | -104.66209 | 8064 ft | 157 kts | 0° |
| 2026-05-06 02:20 | 39.71856 | -104.66168 | 7647 ft | 156 kts | 359° |
| 2026-05-06 02:20 | 39.72919 | -104.66214 | 7378 ft | 149 kts | 359° |
| 2026-05-06 02:20 | 39.73960 | -104.66141 | 7228 ft | 153 kts | 6° |
| 2026-05-06 02:21 | 39.75004 | -104.66069 | 7004 ft | 150 kts | 358° |
| 2026-05-06 02:21 | 39.76056 | -104.66127 | 6797 ft | 149 kts | 359° |
| 2026-05-06 02:21 | 39.77088 | -104.66119 | 6595 ft | 148 kts | 0° |
| 2026-05-06 02:21 | 39.78111 | -104.66106 | 6396 ft | 148 kts | 1° |
| 2026-05-06 02:22 | 39.79139 | -104.66093 | 6197 ft | 145 kts | 0° |
| 2026-05-06 02:22 | 39.80156 | -104.66084 | 5996 ft | 145 kts | 1° |
| 2026-05-06 02:22 | 39.81178 | -104.66071 | 5797 ft | 145 kts | 1° |
| 2026-05-06 02:22 | 39.82189 | -104.66061 | 5603 ft | 145 kts | 1° |
| 2026-05-06 02:23 | 39.83214 | -104.66049 | 5442 ft | 141 kts | 1° |
| 2026-05-06 02:23 | 39.84113 | -104.66037 | 5421 ft | 106 kts | 0° |
| 2026-05-06 02:23 | 39.84619 | -104.66035 | 5411 ft | 42 kts | 358° |
| 2026-05-06 02:23 | 39.84855 | -104.66109 | 5407 ft | 32 kts | 346° |
| 2026-05-06 02:24 | 39.84952 | -104.66158 | 5405 ft | 7 kts | 300° |
| 2026-05-06 02:24 | 39.84980 | -104.66209 | 5405 ft | 5 kts | 319° |
| 2026-05-06 02:24 | 39.85015 | -104.66228 | 5405 ft | 4 kts | 341° |
| 2026-05-06 02:24 | 39.85077 | -104.66244 | 5403 ft | 15 kts | 358° |
| 2026-05-06 02:25 | 39.85162 | -104.66239 | 5398 ft | 7 kts | 2° |
| 2026-05-06 02:25 | 39.85195 | -104.66239 | 5398 ft | 3 kts | 360° |
| 2026-05-06 02:25 | 39.85239 | -104.66239 | 5398 ft | 10 kts | 358° |
| 2026-05-06 02:25 | 39.85289 | -104.66292 | 5398 ft | 9 kts | 282° |
| 2026-05-06 02:26 | 39.85298 | -104.66389 | 5395 ft | 11 kts | 276° |
| 2026-05-06 02:26 | 39.85296 | -104.66505 | 5392 ft | 13 kts | 269° |
| 2026-05-06 02:26 | 39.85352 | -104.66585 | 5389 ft | 13 kts | 355° |
| 2026-05-06 02:26 | 39.85444 | -104.66585 | 5388 ft | 12 kts | 1° |
| 2026-05-06 02:27 | 39.85518 | -104.66617 | 5388 ft | 10 kts | 285° |
| 2026-05-06 02:27 | 39.85509 | -104.66711 | 5388 ft | 8 kts | 248° |
| 2026-05-06 02:27 | 39.85482 | -104.66749 | 5388 ft | 4 kts | 193° |
| 2026-05-06 02:27 | 39.85466 | -104.66750 | 5388 ft | 0 kts | 180° |